Comanche — V7QM7 — position and weather

sailwx.info

Track history (hours):
 
Tides and Currents Weather Stations Pressure Air Temp Water Temp Dewpoint Dewpoint Depression Visibility Wind Speed Wind Dir Waves Ship Positions

Comanche

Last reported at 2018-Jan-08 21:32 UTC. Time now 2018-Feb-21 23:19 UTC.
Position N 36°49' W 075°41'.
Warning: this ship's position is 44 days out of date.

Length 292 m; draft 14.3 m.

Type: Cargo ship. MMSI: 538006933.

Date/timePositionNaut miles runAvg speedWind from/ knotsBaromVisibWave heightAir tempDewpointWater temp
2018-Jan-08 21:32N 36°49' W 075°41'011.3
2018-Jan-08 21:30N 36°49' W 075°42'510.5
2018-Jan-08 21:00N 36°50' W 075°48'4 9.0
2018-Jan-08 20:30N 36°53' W 075°53'5 9.6
2018-Jan-08 20:00N 36°56' W 075°57'3 6.7
2018-Jan-08 19:30N 36°59' W 075°60'3 6.3
2018-Jan-08 19:00N 37°01' W 076°03'3 6.3
2018-Jan-08 18:30N 37°03' W 076°05'3 6.5
2018-Jan-08 17:59N 37°06' W 076°07'3 6.5
2018-Jan-08 17:30N 37°09' W 076°09'  
2018-Jan-06 07:00N 38°44' W 076°26'612.1
2018-Jan-06 06:30N 38°50' W 076°24'612.3
2018-Jan-06 06:01N 38°56' W 076°23'5 9.8
2018-Jan-06 05:30N 39°01' W 076°23'4 8.5
2018-Jan-06 05:01N 39°05' W 076°24'3 6.8
2018-Jan-06 04:30N 39°08' W 076°24'3 6.4
2018-Jan-06 04:00N 39°11' W 076°27'4 7.7
2018-Jan-06 03:30N 39°12' W 076°31'3 6.5
2018-Jan-06 02:59N 39°15' W 076°34'0 0.6
2018-Jan-06 02:29N 39°15' W 076°34'0 0.0
2018-Jan-06 01:59N 39°15' W 076°34'0 0.0
2018-Jan-06 01:29N 39°15' W 076°34'0 0.0
2018-Jan-06 00:59N 39°15' W 076°34'0 0.0
2018-Jan-06 00:29N 39°15' W 076°34'0 0.0
2018-Jan-05 23:59N 39°15' W 076°34'0 0.0
2018-Jan-05 23:29N 39°15' W 076°34'0 0.0
2018-Jan-05 22:59N 39°15' W 076°34'0 0.0
2018-Jan-05 22:29N 39°15' W 076°34'0 0.0
2018-Jan-05 21:59N 39°15' W 076°34'0 0.0
2018-Jan-05 21:29N 39°15' W 076°34'0 0.0
2018-Jan-05 20:59N 39°15' W 076°34'0 0.0
2018-Jan-05 20:29N 39°15' W 076°34'0 0.0
2018-Jan-05 19:59N 39°15' W 076°34'0 0.0
2018-Jan-05 19:29N 39°15' W 076°34'0 0.0
2018-Jan-05 18:59N 39°15' W 076°34'0 0.0
2018-Jan-05 18:29N 39°15' W 076°34'0 0.0
2018-Jan-05 17:59N 39°15' W 076°34'0 0.0
2018-Jan-05 17:26N 39°15' W 076°34'0 0.0
2018-Jan-05 16:59N 39°15' W 076°34'0 0.0
2018-Jan-05 16:29N 39°15' W 076°34'0 0.0
2018-Jan-05 15:59N 39°15' W 076°34'0 0.0
2018-Jan-05 15:29N 39°15' W 076°34'0 0.0
2018-Jan-05 14:59N 39°15' W 076°34'0 0.0
2018-Jan-05 14:29N 39°15' W 076°34'0 0.0
2018-Jan-05 13:59N 39°15' W 076°34'0 0.0
2018-Jan-05 13:29N 39°15' W 076°34'0 0.0
2018-Jan-05 12:59N 39°15' W 076°34'0 0.0
2018-Jan-05 12:29N 39°15' W 076°34'0 0.0
2018-Jan-05 11:59N 39°15' W 076°34'0 0.0
2018-Jan-05 11:29N 39°15' W 076°34'0 0.0
2018-Jan-05 10:59N 39°15' W 076°34'0 0.0
2018-Jan-05 10:29N 39°15' W 076°34'0 0.0
2018-Jan-05 09:59N 39°15' W 076°34'0 0.0
2018-Jan-05 09:29N 39°15' W 076°34'0 0.0
2018-Jan-05 08:59N 39°15' W 076°34'0 0.0
2018-Jan-05 08:29N 39°15' W 076°34'0 0.0
2018-Jan-05 07:59N 39°15' W 076°34'0 0.0
2018-Jan-05 07:29N 39°15' W 076°34'0 0.0
2018-Jan-05 06:59N 39°15' W 076°34'0 0.0
2018-Jan-05 06:29N 39°15' W 076°34'0 0.0
2018-Jan-05 05:59N 39°15' W 076°34'0 0.0
2018-Jan-05 05:29N 39°15' W 076°34'0 0.0
2018-Jan-05 04:59N 39°15' W 076°34'0 0.0
2018-Jan-05 04:29N 39°15' W 076°34'0 0.0
2018-Jan-05 03:59N 39°15' W 076°34'0 0.0
2018-Jan-05 03:29N 39°15' W 076°34'0 0.0
2018-Jan-05 02:59N 39°15' W 076°34'0 0.0
2018-Jan-05 02:29N 39°15' W 076°34'0 0.0
2018-Jan-05 01:59N 39°15' W 076°34'0 0.0
2018-Jan-05 01:29N 39°15' W 076°34'0 0.0
2018-Jan-05 00:59N 39°15' W 076°34'0 0.0
2018-Jan-05 00:29N 39°15' W 076°34'0 0.0
2018-Jan-04 23:59N 39°15' W 076°34'0 0.0
2018-Jan-04 23:29N 39°15' W 076°34'0 0.0
2018-Jan-04 22:59N 39°15' W 076°34'0 0.0
2018-Jan-04 22:29N 39°15' W 076°34'0 0.0
2018-Jan-04 21:59N 39°15' W 076°34'0 0.0
2018-Jan-04 21:29N 39°15' W 076°34'0 0.0
2018-Jan-04 20:59N 39°15' W 076°34'0 0.0
2018-Jan-04 20:29N 39°15' W 076°34'0 0.0
2018-Jan-04 19:59N 39°15' W 076°34'0 0.0
2018-Jan-04 19:29N 39°15' W 076°34'0 0.0
2018-Jan-04 18:59N 39°15' W 076°34'0 0.0
2018-Jan-04 18:29N 39°15' W 076°34'0 0.0
2018-Jan-04 17:59N 39°15' W 076°34'0 0.0
2018-Jan-04 17:29N 39°15' W 076°34'0 0.0
2018-Jan-04 16:59N 39°15' W 076°34'0 0.0
2018-Jan-04 16:29N 39°15' W 076°34'0 0.0
2018-Jan-04 15:59N 39°15' W 076°34'0 0.0
2018-Jan-04 15:29N 39°15' W 076°34'0 0.0
2018-Jan-04 14:59N 39°15' W 076°34'0 0.0
2018-Jan-04 14:29N 39°15' W 076°34'0 0.0
2018-Jan-04 13:59N 39°15' W 076°34'0 0.0
2018-Jan-04 13:29N 39°15' W 076°34'0 0.0
2018-Jan-04 12:59N 39°15' W 076°34'0 0.0
2018-Jan-04 12:29N 39°15' W 076°34'0 0.0
2018-Jan-04 11:59N 39°15' W 076°34'0 0.0
2018-Jan-04 11:29N 39°15' W 076°34'0 0.0
2018-Jan-04 10:59N 39°15' W 076°34'0 0.0
2018-Jan-04 10:29N 39°15' W 076°34'0 0.0
2018-Jan-04 09:59N 39°15' W 076°34'0 0.0
2018-Jan-04 09:29N 39°15' W 076°34'0 0.0
2018-Jan-04 08:59N 39°15' W 076°34'0 0.0
2018-Jan-04 08:29N 39°15' W 076°34'0 0.0
2018-Jan-04 07:59N 39°15' W 076°34'0 0.0
2018-Jan-04 07:29N 39°15' W 076°34'0 0.0
2018-Jan-04 06:59N 39°15' W 076°34'0 0.0
2018-Jan-04 06:29N 39°15' W 076°34'0 0.0
2018-Jan-04 05:59N 39°15' W 076°34'0 0.0
2018-Jan-04 05:29N 39°15' W 076°34'0 0.0
2018-Jan-04 04:59N 39°15' W 076°34'0 0.0
2018-Jan-04 04:29N 39°15' W 076°34'0 0.0
2018-Jan-04 03:59N 39°15' W 076°34'0 0.0
2018-Jan-04 03:29N 39°15' W 076°34'0 0.0
2018-Jan-04 02:59N 39°15' W 076°34'0 0.0
2018-Jan-04 02:29N 39°15' W 076°34'0 0.0
2018-Jan-04 01:59N 39°15' W 076°34'0 0.0
2018-Jan-04 01:29N 39°15' W 076°34'0 0.0
2018-Jan-04 00:59N 39°15' W 076°34'0 0.0
2018-Jan-04 00:29N 39°15' W 076°34'0 0.0
2018-Jan-03 23:59N 39°15' W 076°34'0 0.0
2018-Jan-03 23:29N 39°15' W 076°34'0 0.0
2018-Jan-03 22:59N 39°15' W 076°34'0 0.0
2018-Jan-03 22:29N 39°15' W 076°34'0 0.0
2018-Jan-03 21:59N 39°15' W 076°34'0 0.0
2018-Jan-03 21:29N 39°15' W 076°34'0 0.0
2018-Jan-03 20:59N 39°15' W 076°34'0 0.3
2018-Jan-03 20:30N 39°15' W 076°34'1 2.5
2018-Jan-03 20:00N 39°14' W 076°33'4 7.0
2018-Jan-03 19:30N 39°12' W 076°30'510.6
2018-Jan-03 19:00N 39°09' W 076°24'611.0
2018-Jan-03 18:30N 39°03' W 076°23'510.8
2018-Jan-03 18:00N 38°58' W 076°24'4 6.6
2018-Jan-03 17:28N 38°54' W 076°24'0 0.0
2018-Jan-03 16:58N 38°54' W 076°24'0 0.0
2018-Jan-03 16:28N 38°54' W 076°24'0 0.0
2018-Jan-03 15:58N 38°54' W 076°24'0 0.0
2018-Jan-03 15:28N 38°54' W 076°24'0 0.1
2018-Jan-03 14:58N 38°54' W 076°25'0 0.1
2018-Jan-03 14:29N 38°54' W 076°25'0 0.2
2018-Jan-03 13:58N 38°54' W 076°25'0 0.2
2018-Jan-03 13:28N 38°54' W 076°25'0 0.1
2018-Jan-03 12:58N 38°54' W 076°24'0 0.1
2018-Jan-03 12:28N 38°54' W 076°24'0 0.0
2018-Jan-03 11:58N 38°54' W 076°24'0 0.0
2018-Jan-03 11:28N 38°54' W 076°24'0 0.0
2018-Jan-03 10:58N 38°54' W 076°24'0 0.0
2018-Jan-03 10:28N 38°54' W 076°24'0 0.0
2018-Jan-03 09:58N 38°54' W 076°24'0 0.0
2018-Jan-03 09:28N 38°54' W 076°24'0 0.0
2018-Jan-03 08:58N 38°54' W 076°24'0 0.1
2018-Jan-03 08:28N 38°54' W 076°24'0 0.2
2018-Jan-03 07:59N 38°54' W 076°24'0 0.2
2018-Jan-03 07:28N 38°54' W 076°24'0 0.1
2018-Jan-03 06:58N 38°54' W 076°24'0 0.1
2018-Jan-03 06:28N 38°54' W 076°24'0 0.0
2018-Jan-03 05:58N 38°54' W 076°24'0 0.0
2018-Jan-03 05:28N 38°54' W 076°24'0 0.0
2018-Jan-03 04:58N 38°54' W 076°24'0 0.1
2018-Jan-03 04:28N 38°54' W 076°24'0 0.1
2018-Jan-03 03:58N 38°54' W 076°24'0 0.1
2018-Jan-03 03:28N 38°54' W 076°24'0 0.2
2018-Jan-03 02:58N 38°54' W 076°24'0 0.2
2018-Jan-03 02:28N 38°54' W 076°24'0 0.0
2018-Jan-03 01:58N 38°54' W 076°24'0 0.1
2018-Jan-03 01:28N 38°54' W 076°24'0 0.1
2018-Jan-03 00:58N 38°54' W 076°24'0 0.1
2018-Jan-03 00:28N 38°55' W 076°24'0 0.0
2018-Jan-02 23:58N 38°55' W 076°24'0 0.0
2018-Jan-02 23:29N 38°55' W 076°24'0 0.0
2018-Jan-02 22:58N 38°55' W 076°24'0 0.0
2018-Jan-02 22:28N 38°55' W 076°24'0 0.0
2018-Jan-02 21:58N 38°55' W 076°24'0 0.0
2018-Jan-02 21:28N 38°55' W 076°24'0 0.0
2018-Jan-02 20:58N 38°55' W 076°24'0 0.0
2018-Jan-02 20:28N 38°55' W 076°24'0 0.0
2018-Jan-02 19:58N 38°55' W 076°24'0 0.1
2018-Jan-02 19:28N 38°54' W 076°24'0 0.1
2018-Jan-02 18:58N 38°54' W 076°24'0 0.2
2018-Jan-02 18:28N 38°54' W 076°24'0 0.2
2018-Jan-02 17:58N 38°54' W 076°24'0 0.1
2018-Jan-02 17:28N 38°54' W 076°24'0 0.0
2018-Jan-02 16:58N 38°54' W 076°24'0 0.1
2018-Jan-02 16:28N 38°54' W 076°24'0 0.0
2018-Jan-02 15:58N 38°54' W 076°24'0 0.0
2018-Jan-02 15:28N 38°54' W 076°24'0 0.0
2018-Jan-02 14:58N 38°54' W 076°24'0 0.0
2018-Jan-02 14:28N 38°54' W 076°24'0 0.0
2018-Jan-02 13:58N 38°54' W 076°24'0 0.0
2018-Jan-02 13:28N 38°54' W 076°24'0 0.0
2018-Jan-02 12:58N 38°54' W 076°24'0 0.0
2018-Jan-02 12:28N 38°54' W 076°24'0 0.1
2018-Jan-02 11:58N 38°54' W 076°24'0 0.0
2018-Jan-02 11:28N 38°54' W 076°24'0 0.0
2018-Jan-02 10:58N 38°54' W 076°24'0 0.1
2018-Jan-02 10:28N 38°54' W 076°24'0 0.0
2018-Jan-02 09:58N 38°54' W 076°24'0 0.0
2018-Jan-02 09:28N 38°54' W 076°24'0 0.0
2018-Jan-02 08:28N 38°54' W 076°24'0 0.1
2018-Jan-02 07:58N 38°54' W 076°24'0 0.1
2018-Jan-02 07:28N 38°54' W 076°24'0 0.1
2018-Jan-02 06:58N 38°54' W 076°24'0 0.1
2018-Jan-02 06:28N 38°54' W 076°24'0 0.1
2018-Jan-02 05:58N 38°54' W 076°24'0 0.1
2018-Jan-02 05:28N 38°54' W 076°24'0 0.0
2018-Jan-02 04:28N 38°54' W 076°24'0 0.0
2018-Jan-02 03:58N 38°54' W 076°24'0 0.1
2018-Jan-02 03:25N 38°54' W 076°24'0 0.0
2018-Jan-02 02:58N 38°54' W 076°24'0 0.0
2018-Jan-02 02:28N 38°54' W 076°24'0 0.0
2018-Jan-02 01:58N 38°54' W 076°24'0 0.0
2018-Jan-02 01:28N 38°54' W 076°24'0 0.3
2018-Jan-02 00:58N 38°54' W 076°24'0 0.2
2018-Jan-02 00:28N 38°54' W 076°24'0 0.1
2018-Jan-01 23:58N 38°54' W 076°24'0 0.1
2018-Jan-01 23:28N 38°55' W 076°24'0 0.0
2018-Jan-01 22:58N 38°55' W 076°24'0 0.0
2018-Jan-01 22:28N 38°55' W 076°24'0 0.0
2018-Jan-01 21:58N 38°54' W 076°24'0 0.0
2018-Jan-01 21:28N 38°55' W 076°24'0 0.0
2018-Jan-01 20:58N 38°55' W 076°24'0 0.0
2018-Jan-01 20:28N 38°55' W 076°24'0 0.1
2018-Jan-01 19:58N 38°55' W 076°24'0 0.1
2018-Jan-01 19:28N 38°54' W 076°24'0 0.1
2018-Jan-01 18:58N 38°54' W 076°24'0 0.1
2018-Jan-01 18:28N 38°54' W 076°24'0 0.2
2018-Jan-01 17:58N 38°54' W 076°24'0 0.1
2018-Jan-01 17:28N 38°54' W 076°24'0 0.0
2018-Jan-01 14:58N 38°54' W 076°24'0 0.0
2018-Jan-01 14:28N 38°54' W 076°24'0 0.0
2018-Jan-01 13:58N 38°54' W 076°24'0 0.0
2018-Jan-01 13:28N 38°54' W 076°24'0 0.0
2018-Jan-01 12:58N 38°54' W 076°24'0 0.0
2018-Jan-01 11:58N 38°54' W 076°24'0 0.0
2018-Jan-01 11:28N 38°54' W 076°24'0 0.0
2018-Jan-01 10:58N 38°54' W 076°24'0 0.0
2018-Jan-01 10:28N 38°54' W 076°24'0 0.0
2018-Jan-01 09:58N 38°54' W 076°24'0 0.1
2018-Jan-01 09:28N 38°54' W 076°24'0 0.1
2018-Jan-01 08:28N 38°54' W 076°24'0 0.1
2018-Jan-01 07:58N 38°54' W 076°24'0 0.1
2018-Jan-01 07:28N 38°54' W 076°24'0 0.1
2018-Jan-01 06:58N 38°54' W 076°24'0 0.1
2018-Jan-01 05:58N 38°54' W 076°24'0 0.0
2018-Jan-01 05:28N 38°54' W 076°24'0 0.0
2018-Jan-01 04:58N 38°54' W 076°24'0 0.0
2018-Jan-01 03:58N 38°54' W 076°24'0 0.0
2018-Jan-01 03:28N 38°54' W 076°24'0 0.0
2018-Jan-01 02:58N 38°54' W 076°24'0 0.0
2018-Jan-01 02:28N 38°54' W 076°24'0 0.0
2018-Jan-01 01:58N 38°54' W 076°24'0 0.0
2018-Jan-01 01:28N 38°54' W 076°24'0 0.0
2018-Jan-01 00:28N 38°54' W 076°24'0 0.1
2017-Dec-31 20:58N 38°54' W 076°24'0 0.0
2017-Dec-31 20:28N 38°54' W 076°24'0 0.0
2017-Dec-31 19:58N 38°54' W 076°24'0 0.1
2017-Dec-31 19:28N 38°54' W 076°24'0 0.1
2017-Dec-31 18:58N 38°54' W 076°24'0 0.1
2017-Dec-31 18:28N 38°54' W 076°24'0 0.1
2017-Dec-31 17:58N 38°54' W 076°24'0 0.1
2017-Dec-31 17:28N 38°54' W 076°24'0 0.1
2017-Dec-31 16:58N 38°54' W 076°24'0 0.0
2017-Dec-31 16:28N 38°54' W 076°24'0 0.0
2017-Dec-31 15:58N 38°54' W 076°24'0 0.0
2017-Dec-31 15:28N 38°54' W 076°24'0 0.0
2017-Dec-31 14:58N 38°54' W 076°24'0 0.0
2017-Dec-31 14:28N 38°54' W 076°24'0 0.0
2017-Dec-31 13:58N 38°54' W 076°24'0 0.0
2017-Dec-31 13:28N 38°54' W 076°24'0 0.0
2017-Dec-31 12:58N 38°54' W 076°24'0 0.0
2017-Dec-31 12:28N 38°54' W 076°24'0 0.0
2017-Dec-31 11:58N 38°54' W 076°24'0 0.0
2017-Dec-31 11:28N 38°54' W 076°24'0 0.0
2017-Dec-31 10:55N 38°54' W 076°24'0 0.0
2017-Dec-31 10:28N 38°54' W 076°24'0 0.1
2017-Dec-31 09:58N 38°54' W 076°24'0 0.0
2017-Dec-31 09:28N 38°54' W 076°24'0 0.0
2017-Dec-31 08:58N 38°54' W 076°24'0 0.1
2017-Dec-31 08:28N 38°54' W 076°24'0 0.0
2017-Dec-31 07:58N 38°54' W 076°24'0 0.0
2017-Dec-31 07:28N 38°54' W 076°24'0 0.0
2017-Dec-31 06:58N 38°54' W 076°24'0 0.1
2017-Dec-31 06:28N 38°54' W 076°24'0 0.0
2017-Dec-31 05:58N 38°54' W 076°24'0 0.0
2017-Dec-31 05:28N 38°54' W 076°24'0 0.0
2017-Dec-31 04:58N 38°54' W 076°24'0 0.0
2017-Dec-31 04:28N 38°54' W 076°24'0 0.0
2017-Dec-31 03:58N 38°54' W 076°24'0 0.0
2017-Dec-31 03:28N 38°54' W 076°24'0 0.0
2017-Dec-31 02:58N 38°54' W 076°24'0 0.0
2017-Dec-31 02:28N 38°54' W 076°24'0 0.0
2017-Dec-31 01:58N 38°54' W 076°24'0 0.0
2017-Dec-31 01:28N 38°54' W 076°24'0 0.0
2017-Dec-31 00:58N 38°54' W 076°24'0 0.0
2017-Dec-31 00:28N 38°54' W 076°24'0 0.0
2017-Dec-30 23:58N 38°54' W 076°24'0 0.1
2017-Dec-30 23:28N 38°54' W 076°24'0 0.3
2017-Dec-30 22:58N 38°54' W 076°24'0 0.2
2017-Dec-30 22:28N 38°54' W 076°24'0 0.1
2017-Dec-30 21:58N 38°54' W 076°24'0 0.0
2017-Dec-30 21:28N 38°54' W 076°24'0 0.0
2017-Dec-30 20:58N 38°54' W 076°24'0 0.0
2017-Dec-30 20:28N 38°54' W 076°24'0 0.0
2017-Dec-30 19:58N 38°54' W 076°24'0 0.0
2017-Dec-30 19:28N 38°54' W 076°24'0 0.0
2017-Dec-30 18:58N 38°54' W 076°24'0 0.0
2017-Dec-30 18:28N 38°54' W 076°24'0 0.0
2017-Dec-30 17:58N 38°54' W 076°24'0 0.0
2017-Dec-30 17:28N 38°54' W 076°24'0 0.0
2017-Dec-30 16:58N 38°54' W 076°24'0 0.0
2017-Dec-30 16:28N 38°54' W 076°24'0 0.0
2017-Dec-30 15:58N 38°54' W 076°24'0 0.1
2017-Dec-30 15:28N 38°54' W 076°25'0 0.1
2017-Dec-30 14:58N 38°54' W 076°25'0 0.2
2017-Dec-30 14:22N 38°54' W 076°25'0 0.1
2017-Dec-30 13:52N 38°54' W 076°25'0 0.1
2017-Dec-30 13:13N 38°54' W 076°25'0 0.0
2017-Dec-30 12:40N 38°54' W 076°25'0 0.1
2017-Dec-30 12:28N 38°54' W 076°25'0 0.1
2017-Dec-30 11:46N 38°54' W 076°25'0 0.1
2017-Dec-30 11:13N 38°54' W 076°25'0 0.2
2017-Dec-30 10:55N 38°54' W 076°25'0 0.1
2017-Dec-30 10:28N 38°54' W 076°25'0 0.1
2017-Dec-30 09:58N 38°54' W 076°24'0 0.1
2017-Dec-30 09:28N 38°54' W 076°24'0 0.0
2017-Dec-30 08:58N 38°54' W 076°24'0 0.0
2017-Dec-30 08:28N 38°54' W 076°24'0 0.0
2017-Dec-30 07:58N 38°54' W 076°24'0 0.0
2017-Dec-30 07:28N 38°54' W 076°24'0 0.2
2017-Dec-30 06:58N 38°54' W 076°25'0 0.3
2017-Dec-30 06:25N 38°54' W 076°25'0 0.1
2017-Dec-30 05:52N 38°54' W 076°24'0 0.0
2017-Dec-30 05:28N 38°54' W 076°24'0 0.0
2017-Dec-30 04:58N 38°54' W 076°24'0 0.0
2017-Dec-30 04:28N 38°54' W 076°24'0 0.0
2017-Dec-30 03:58N 38°54' W 076°24'0 0.0
2017-Dec-30 03:28N 38°54' W 076°24'0 0.0
2017-Dec-30 02:58N 38°54' W 076°24'0 0.0
2017-Dec-30 02:28N 38°54' W 076°24'0 0.0
2017-Dec-30 01:58N 38°54' W 076°24'0 0.0
2017-Dec-30 01:28N 38°54' W 076°24'0 0.0
2017-Dec-30 00:55N 38°54' W 076°24'0 0.0
2017-Dec-30 00:28N 38°54' W 076°24'0 0.0
2017-Dec-29 23:58N 38°54' W 076°24'0 0.0
2017-Dec-29 23:28N 38°54' W 076°24'0 0.0
2017-Dec-29 22:58N 38°54' W 076°24'0 0.1
2017-Dec-29 22:28N 38°54' W 076°24'0 0.1
2017-Dec-29 21:58N 38°54' W 076°24'  
Track history (hours):
 
Tides and Currents Weather Stations Pressure Air Temp Water Temp Dewpoint Dewpoint Depression Visibility Wind Speed Wind Dir Waves Ship Positions

Comanche

Last reported at 2018-Jan-08 21:32 UTC. Time now 2018-Feb-21 23:19 UTC.
Position N 36°49' W 075°41'.
Warning: this ship's position is 44 days out of date.

Length 292 m; draft 14.3 m.

Type: Cargo ship. MMSI: 538006933.

Date/timePositionNaut miles runAvg speedWind from/ knotsBaromVisibWave heightAir tempDewpointWater temp
2018-Jan-08 21:32N 36°49' W 075°41'011.3
2018-Jan-08 21:30N 36°49' W 075°42'510.5
2018-Jan-08 21:00N 36°50' W 075°48'4 9.0
2018-Jan-08 20:30N 36°53' W 075°53'5 9.6
2018-Jan-08 20:00N 36°56' W 075°57'3 6.7
2018-Jan-08 19:30N 36°59' W 075°60'3 6.3
2018-Jan-08 19:00N 37°01' W 076°03'3 6.3
2018-Jan-08 18:30N 37°03' W 076°05'3 6.5
2018-Jan-08 17:59N 37°06' W 076°07'3 6.5
2018-Jan-08 17:30N 37°09' W 076°09'  
2018-Jan-06 07:00N 38°44' W 076°26'612.1
2018-Jan-06 06:30N 38°50' W 076°24'612.3
2018-Jan-06 06:01N 38°56' W 076°23'5 9.8
2018-Jan-06 05:30N 39°01' W 076°23'4 8.5
2018-Jan-06 05:01N 39°05' W 076°24'3 6.8
2018-Jan-06 04:30N 39°08' W 076°24'3 6.4
2018-Jan-06 04:00N 39°11' W 076°27'4 7.7
2018-Jan-06 03:30N 39°12' W 076°31'3 6.5
2018-Jan-06 02:59N 39°15' W 076°34'0 0.6
2018-Jan-06 02:29N 39°15' W 076°34'0 0.0
2018-Jan-06 01:59N 39°15' W 076°34'0 0.0
2018-Jan-06 01:29N 39°15' W 076°34'0 0.0
2018-Jan-06 00:59N 39°15' W 076°34'0 0.0
2018-Jan-06 00:29N 39°15' W 076°34'0 0.0
2018-Jan-05 23:59N 39°15' W 076°34'0 0.0
2018-Jan-05 23:29N 39°15' W 076°34'0 0.0
2018-Jan-05 22:59N 39°15' W 076°34'0 0.0
2018-Jan-05 22:29N 39°15' W 076°34'0 0.0
2018-Jan-05 21:59N 39°15' W 076°34'0 0.0
2018-Jan-05 21:29N 39°15' W 076°34'0 0.0
2018-Jan-05 20:59N 39°15' W 076°34'0 0.0
2018-Jan-05 20:29N 39°15' W 076°34'0 0.0
2018-Jan-05 19:59N 39°15' W 076°34'0 0.0
2018-Jan-05 19:29N 39°15' W 076°34'0 0.0
2018-Jan-05 18:59N 39°15' W 076°34'0 0.0
2018-Jan-05 18:29N 39°15' W 076°34'0 0.0
2018-Jan-05 17:59N 39°15' W 076°34'0 0.0
2018-Jan-05 17:26N 39°15' W 076°34'0 0.0
2018-Jan-05 16:59N 39°15' W 076°34'0 0.0
2018-Jan-05 16:29N 39°15' W 076°34'0 0.0
2018-Jan-05 15:59N 39°15' W 076°34'0 0.0
2018-Jan-05 15:29N 39°15' W 076°34'0 0.0
2018-Jan-05 14:59N 39°15' W 076°34'0 0.0
2018-Jan-05 14:29N 39°15' W 076°34'0 0.0
2018-Jan-05 13:59N 39°15' W 076°34'0 0.0
2018-Jan-05 13:29N 39°15' W 076°34'0 0.0
2018-Jan-05 12:59N 39°15' W 076°34'0 0.0
2018-Jan-05 12:29N 39°15' W 076°34'0 0.0
2018-Jan-05 11:59N 39°15' W 076°34'0 0.0
2018-Jan-05 11:29N 39°15' W 076°34'0 0.0
2018-Jan-05 10:59N 39°15' W 076°34'0 0.0
2018-Jan-05 10:29N 39°15' W 076°34'0 0.0
2018-Jan-05 09:59N 39°15' W 076°34'0 0.0
2018-Jan-05 09:29N 39°15' W 076°34'0 0.0
2018-Jan-05 08:59N 39°15' W 076°34'0 0.0
2018-Jan-05 08:29N 39°15' W 076°34'0 0.0
2018-Jan-05 07:59N 39°15' W 076°34'0 0.0
2018-Jan-05 07:29N 39°15' W 076°34'0 0.0
2018-Jan-05 06:59N 39°15' W 076°34'0 0.0
2018-Jan-05 06:29N 39°15' W 076°34'0 0.0
2018-Jan-05 05:59N 39°15' W 076°34'0 0.0
2018-Jan-05 05:29N 39°15' W 076°34'0 0.0
2018-Jan-05 04:59N 39°15' W 076°34'0 0.0
2018-Jan-05 04:29N 39°15' W 076°34'0 0.0
2018-Jan-05 03:59N 39°15' W 076°34'0 0.0
2018-Jan-05 03:29N 39°15' W 076°34'0 0.0
2018-Jan-05 02:59N 39°15' W 076°34'0 0.0
2018-Jan-05 02:29N 39°15' W 076°34'0 0.0
2018-Jan-05 01:59N 39°15' W 076°34'0 0.0
2018-Jan-05 01:29N 39°15' W 076°34'0 0.0
2018-Jan-05 00:59N 39°15' W 076°34'0 0.0
2018-Jan-05 00:29N 39°15' W 076°34'0 0.0
2018-Jan-04 23:59N 39°15' W 076°34'0 0.0
2018-Jan-04 23:29N 39°15' W 076°34'0 0.0
2018-Jan-04 22:59N 39°15' W 076°34'0 0.0
2018-Jan-04 22:29N 39°15' W 076°34'0 0.0
2018-Jan-04 21:59N 39°15' W 076°34'0 0.0
2018-Jan-04 21:29N 39°15' W 076°34'0 0.0
2018-Jan-04 20:59N 39°15' W 076°34'0 0.0
2018-Jan-04 20:29N 39°15' W 076°34'0 0.0
2018-Jan-04 19:59N 39°15' W 076°34'0 0.0
2018-Jan-04 19:29N 39°15' W 076°34'0 0.0
2018-Jan-04 18:59N 39°15' W 076°34'0 0.0
2018-Jan-04 18:29N 39°15' W 076°34'0 0.0
2018-Jan-04 17:59N 39°15' W 076°34'0 0.0
2018-Jan-04 17:29N 39°15' W 076°34'0 0.0
2018-Jan-04 16:59N 39°15' W 076°34'0 0.0
2018-Jan-04 16:29N 39°15' W 076°34'0 0.0
2018-Jan-04 15:59N 39°15' W 076°34'0 0.0
2018-Jan-04 15:29N 39°15' W 076°34'0 0.0
2018-Jan-04 14:59N 39°15' W 076°34'0 0.0
2018-Jan-04 14:29N 39°15' W 076°34'0 0.0
2018-Jan-04 13:59N 39°15' W 076°34'0 0.0
2018-Jan-04 13:29N 39°15' W 076°34'0 0.0
2018-Jan-04 12:59N 39°15' W 076°34'0 0.0
2018-Jan-04 12:29N 39°15' W 076°34'0 0.0
2018-Jan-04 11:59N 39°15' W 076°34'0 0.0
2018-Jan-04 11:29N 39°15' W 076°34'0 0.0
2018-Jan-04 10:59N 39°15' W 076°34'0 0.0
2018-Jan-04 10:29N 39°15' W 076°34'0 0.0
2018-Jan-04 09:59N 39°15' W 076°34'0 0.0
2018-Jan-04 09:29N 39°15' W 076°34'0 0.0
2018-Jan-04 08:59N 39°15' W 076°34'0 0.0
2018-Jan-04 08:29N 39°15' W 076°34'0 0.0
2018-Jan-04 07:59N 39°15' W 076°34'0 0.0
2018-Jan-04 07:29N 39°15' W 076°34'0 0.0
2018-Jan-04 06:59N 39°15' W 076°34'0 0.0
2018-Jan-04 06:29N 39°15' W 076°34'0 0.0
2018-Jan-04 05:59N 39°15' W 076°34'0 0.0
2018-Jan-04 05:29N 39°15' W 076°34'0 0.0
2018-Jan-04 04:59N 39°15' W 076°34'0 0.0
2018-Jan-04 04:29N 39°15' W 076°34'0 0.0
2018-Jan-04 03:59N 39°15' W 076°34'0 0.0
2018-Jan-04 03:29N 39°15' W 076°34'0 0.0
2018-Jan-04 02:59N 39°15' W 076°34'0 0.0
2018-Jan-04 02:29N 39°15' W 076°34'0 0.0
2018-Jan-04 01:59N 39°15' W 076°34'0 0.0
2018-Jan-04 01:29N 39°15' W 076°34'0 0.0
2018-Jan-04 00:59N 39°15' W 076°34'0 0.0
2018-Jan-04 00:29N 39°15' W 076°34'0 0.0
2018-Jan-03 23:59N 39°15' W 076°34'0 0.0
2018-Jan-03 23:29N 39°15' W 076°34'0 0.0
2018-Jan-03 22:59N 39°15' W 076°34'0 0.0
2018-Jan-03 22:29N 39°15' W 076°34'0 0.0
2018-Jan-03 21:59N 39°15' W 076°34'0 0.0
2018-Jan-03 21:29N 39°15' W 076°34'0 0.0
2018-Jan-03 20:59N 39°15' W 076°34'0 0.3
2018-Jan-03 20:30N 39°15' W 076°34'1 2.5
2018-Jan-03 20:00N 39°14' W 076°33'4 7.0
2018-Jan-03 19:30N 39°12' W 076°30'510.6
2018-Jan-03 19:00N 39°09' W 076°24'611.0
2018-Jan-03 18:30N 39°03' W 076°23'510.8
2018-Jan-03 18:00N 38°58' W 076°24'4 6.6
2018-Jan-03 17:28N 38°54' W 076°24'0 0.0
2018-Jan-03 16:58N 38°54' W 076°24'0 0.0
2018-Jan-03 16:28N 38°54' W 076°24'0 0.0
2018-Jan-03 15:58N 38°54' W 076°24'0 0.0
2018-Jan-03 15:28N 38°54' W 076°24'0 0.1
2018-Jan-03 14:58N 38°54' W 076°25'0 0.1
2018-Jan-03 14:29N 38°54' W 076°25'0 0.2
2018-Jan-03 13:58N 38°54' W 076°25'0 0.2
2018-Jan-03 13:28N 38°54' W 076°25'0 0.1
2018-Jan-03 12:58N 38°54' W 076°24'0 0.1
2018-Jan-03 12:28N 38°54' W 076°24'0 0.0
2018-Jan-03 11:58N 38°54' W 076°24'0 0.0
2018-Jan-03 11:28N 38°54' W 076°24'0 0.0
2018-Jan-03 10:58N 38°54' W 076°24'0 0.0
2018-Jan-03 10:28N 38°54' W 076°24'0 0.0
2018-Jan-03 09:58N 38°54' W 076°24'0 0.0
2018-Jan-03 09:28N 38°54' W 076°24'0 0.0
2018-Jan-03 08:58N 38°54' W 076°24'0 0.1
2018-Jan-03 08:28N 38°54' W 076°24'0 0.2
2018-Jan-03 07:59N 38°54' W 076°24'0 0.2
2018-Jan-03 07:28N 38°54' W 076°24'0 0.1
2018-Jan-03 06:58N 38°54' W 076°24'0 0.1
2018-Jan-03 06:28N 38°54' W 076°24'0 0.0
2018-Jan-03 05:58N 38°54' W 076°24'0 0.0
2018-Jan-03 05:28N 38°54' W 076°24'0 0.0
2018-Jan-03 04:58N 38°54' W 076°24'0 0.1
2018-Jan-03 04:28N 38°54' W 076°24'0 0.1
2018-Jan-03 03:58N 38°54' W 076°24'0 0.1
2018-Jan-03 03:28N 38°54' W 076°24'0 0.2
2018-Jan-03 02:58N 38°54' W 076°24'0 0.2
2018-Jan-03 02:28N 38°54' W 076°24'0 0.0
2018-Jan-03 01:58N 38°54' W 076°24'0 0.1
2018-Jan-03 01:28N 38°54' W 076°24'0 0.1
2018-Jan-03 00:58N 38°54' W 076°24'0 0.1
2018-Jan-03 00:28N 38°55' W 076°24'0 0.0
2018-Jan-02 23:58N 38°55' W 076°24'0 0.0
2018-Jan-02 23:29N 38°55' W 076°24'0 0.0
2018-Jan-02 22:58N 38°55' W 076°24'0 0.0
2018-Jan-02 22:28N 38°55' W 076°24'0 0.0
2018-Jan-02 21:58N 38°55' W 076°24'0 0.0
2018-Jan-02 21:28N 38°55' W 076°24'0 0.0
2018-Jan-02 20:58N 38°55' W 076°24'0 0.0
2018-Jan-02 20:28N 38°55' W 076°24'0 0.0
2018-Jan-02 19:58N 38°55' W 076°24'0 0.1
2018-Jan-02 19:28N 38°54' W 076°24'0 0.1
2018-Jan-02 18:58N 38°54' W 076°24'0 0.2
2018-Jan-02 18:28N 38°54' W 076°24'0 0.2
2018-Jan-02 17:58N 38°54' W 076°24'0 0.1
2018-Jan-02 17:28N 38°54' W 076°24'0 0.0
2018-Jan-02 16:58N 38°54' W 076°24'0 0.1
2018-Jan-02 16:28N 38°54' W 076°24'0 0.0
2018-Jan-02 15:58N 38°54' W 076°24'0 0.0
2018-Jan-02 15:28N 38°54' W 076°24'0 0.0
2018-Jan-02 14:58N 38°54' W 076°24'0 0.0
2018-Jan-02 14:28N 38°54' W 076°24'0 0.0
2018-Jan-02 13:58N 38°54' W 076°24'0 0.0
2018-Jan-02 13:28N 38°54' W 076°24'0 0.0
2018-Jan-02 12:58N 38°54' W 076°24'0 0.0
2018-Jan-02 12:28N 38°54' W 076°24'0 0.1
2018-Jan-02 11:58N 38°54' W 076°24'0 0.0
2018-Jan-02 11:28N 38°54' W 076°24'0 0.0
2018-Jan-02 10:58N 38°54' W 076°24'0 0.1
2018-Jan-02 10:28N 38°54' W 076°24'0 0.0
2018-Jan-02 09:58N 38°54' W 076°24'0 0.0
2018-Jan-02 09:28N 38°54' W 076°24'0 0.0
2018-Jan-02 08:28N 38°54' W 076°24'0 0.1
2018-Jan-02 07:58N 38°54' W 076°24'0 0.1
2018-Jan-02 07:28N 38°54' W 076°24'0 0.1
2018-Jan-02 06:58N 38°54' W 076°24'0 0.1
2018-Jan-02 06:28N 38°54' W 076°24'0 0.1
2018-Jan-02 05:58N 38°54' W 076°24'0 0.1
2018-Jan-02 05:28N 38°54' W 076°24'0 0.0
2018-Jan-02 04:28N 38°54' W 076°24'0 0.0
2018-Jan-02 03:58N 38°54' W 076°24'0 0.1
2018-Jan-02 03:25N 38°54' W 076°24'0 0.0
2018-Jan-02 02:58N 38°54' W 076°24'0 0.0
2018-Jan-02 02:28N 38°54' W 076°24'0 0.0
2018-Jan-02 01:58N 38°54' W 076°24'0 0.0
2018-Jan-02 01:28N 38°54' W 076°24'0 0.3
2018-Jan-02 00:58N 38°54' W 076°24'0 0.2
2018-Jan-02 00:28N 38°54' W 076°24'0 0.1
2018-Jan-01 23:58N 38°54' W 076°24'0 0.1
2018-Jan-01 23:28N 38°55' W 076°24'0 0.0
2018-Jan-01 22:58N 38°55' W 076°24'0 0.0
2018-Jan-01 22:28N 38°55' W 076°24'0 0.0
2018-Jan-01 21:58N 38°54' W 076°24'0 0.0
2018-Jan-01 21:28N 38°55' W 076°24'0 0.0
2018-Jan-01 20:58N 38°55' W 076°24'0 0.0
2018-Jan-01 20:28N 38°55' W 076°24'0 0.1
2018-Jan-01 19:58N 38°55' W 076°24'0 0.1
2018-Jan-01 19:28N 38°54' W 076°24'0 0.1
2018-Jan-01 18:58N 38°54' W 076°24'0 0.1
2018-Jan-01 18:28N 38°54' W 076°24'0 0.2
2018-Jan-01 17:58N 38°54' W 076°24'0 0.1
2018-Jan-01 17:28N 38°54' W 076°24'0 0.0
2018-Jan-01 14:58N 38°54' W 076°24'0 0.0
2018-Jan-01 14:28N 38°54' W 076°24'0 0.0
2018-Jan-01 13:58N 38°54' W 076°24'0 0.0
2018-Jan-01 13:28N 38°54' W 076°24'0 0.0
2018-Jan-01 12:58N 38°54' W 076°24'0 0.0
2018-Jan-01 11:58N 38°54' W 076°24'0 0.0
2018-Jan-01 11:28N 38°54' W 076°24'0 0.0
2018-Jan-01 10:58N 38°54' W 076°24'0 0.0
2018-Jan-01 10:28N 38°54' W 076°24'0 0.0
2018-Jan-01 09:58N 38°54' W 076°24'0 0.1
2018-Jan-01 09:28N 38°54' W 076°24'0 0.1
2018-Jan-01 08:28N 38°54' W 076°24'0 0.1
2018-Jan-01 07:58N 38°54' W 076°24'0 0.1
2018-Jan-01 07:28N 38°54' W 076°24'0 0.1
2018-Jan-01 06:58N 38°54' W 076°24'0 0.1
2018-Jan-01 05:58N 38°54' W 076°24'0 0.0
2018-Jan-01 05:28N 38°54' W 076°24'0 0.0
2018-Jan-01 04:58N 38°54' W 076°24'0 0.0
2018-Jan-01 03:58N 38°54' W 076°24'0 0.0
2018-Jan-01 03:28N 38°54' W 076°24'0 0.0
2018-Jan-01 02:58N 38°54' W 076°24'0 0.0
2018-Jan-01 02:28N 38°54' W 076°24'0 0.0
2018-Jan-01 01:58N 38°54' W 076°24'0 0.0
2018-Jan-01 01:28N 38°54' W 076°24'0 0.0
2018-Jan-01 00:28N 38°54' W 076°24'0 0.1
2017-Dec-31 20:58N 38°54' W 076°24'0 0.0
2017-Dec-31 20:28N 38°54' W 076°24'0 0.0
2017-Dec-31 19:58N 38°54' W 076°24'0 0.1
2017-Dec-31 19:28N 38°54' W 076°24'0 0.1
2017-Dec-31 18:58N 38°54' W 076°24'0 0.1
2017-Dec-31 18:28N 38°54' W 076°24'0 0.1
2017-Dec-31 17:58N 38°54' W 076°24'0 0.1
2017-Dec-31 17:28N 38°54' W 076°24'0 0.1
2017-Dec-31 16:58N 38°54' W 076°24'0 0.0
2017-Dec-31 16:28N 38°54' W 076°24'0 0.0
2017-Dec-31 15:58N 38°54' W 076°24'0 0.0
2017-Dec-31 15:28N 38°54' W 076°24'0 0.0
2017-Dec-31 14:58N 38°54' W 076°24'0 0.0
2017-Dec-31 14:28N 38°54' W 076°24'0 0.0
2017-Dec-31 13:58N 38°54' W 076°24'0 0.0
2017-Dec-31 13:28N 38°54' W 076°24'0 0.0
2017-Dec-31 12:58N 38°54' W 076°24'0 0.0
2017-Dec-31 12:28N 38°54' W 076°24'0 0.0
2017-Dec-31 11:58N 38°54' W 076°24'0 0.0
2017-Dec-31 11:28N 38°54' W 076°24'0 0.0
2017-Dec-31 10:55N 38°54' W 076°24'0 0.0
2017-Dec-31 10:28N 38°54' W 076°24'0 0.1
2017-Dec-31 09:58N 38°54' W 076°24'0 0.0
2017-Dec-31 09:28N 38°54' W 076°24'0 0.0
2017-Dec-31 08:58N 38°54' W 076°24'0 0.1
2017-Dec-31 08:28N 38°54' W 076°24'0 0.0
2017-Dec-31 07:58N 38°54' W 076°24'0 0.0
2017-Dec-31 07:28N 38°54' W 076°24'0 0.0
2017-Dec-31 06:58N 38°54' W 076°24'0 0.1
2017-Dec-31 06:28N 38°54' W 076°24'0 0.0
2017-Dec-31 05:58N 38°54' W 076°24'0 0.0
2017-Dec-31 05:28N 38°54' W 076°24'0 0.0
2017-Dec-31 04:58N 38°54' W 076°24'0 0.0
2017-Dec-31 04:28N 38°54' W 076°24'0 0.0
2017-Dec-31 03:58N 38°54' W 076°24'0 0.0
2017-Dec-31 03:28N 38°54' W 076°24'0 0.0
2017-Dec-31 02:58N 38°54' W 076°24'0 0.0
2017-Dec-31 02:28N 38°54' W 076°24'0 0.0
2017-Dec-31 01:58N 38°54' W 076°24'0 0.0
2017-Dec-31 01:28N 38°54' W 076°24'0 0.0
2017-Dec-31 00:58N 38°54' W 076°24'0 0.0
2017-Dec-31 00:28N 38°54' W 076°24'0 0.0
2017-Dec-30 23:58N 38°54' W 076°24'0 0.1
2017-Dec-30 23:28N 38°54' W 076°24'0 0.3
2017-Dec-30 22:58N 38°54' W 076°24'0 0.2
2017-Dec-30 22:28N 38°54' W 076°24'0 0.1
2017-Dec-30 21:58N 38°54' W 076°24'0 0.0
2017-Dec-30 21:28N 38°54' W 076°24'0 0.0
2017-Dec-30 20:58N 38°54' W 076°24'0 0.0
2017-Dec-30 20:28N 38°54' W 076°24'0 0.0
2017-Dec-30 19:58N 38°54' W 076°24'0 0.0
2017-Dec-30 19:28N 38°54' W 076°24'0 0.0
2017-Dec-30 18:58N 38°54' W 076°24'0 0.0
2017-Dec-30 18:28N 38°54' W 076°24'0 0.0
2017-Dec-30 17:58N 38°54' W 076°24'0 0.0
2017-Dec-30 17:28N 38°54' W 076°24'0 0.0
2017-Dec-30 16:58N 38°54' W 076°24'0 0.0
2017-Dec-30 16:28N 38°54' W 076°24'0 0.0
2017-Dec-30 15:58N 38°54' W 076°24'0 0.1
2017-Dec-30 15:28N 38°54' W 076°25'0 0.1
2017-Dec-30 14:58N 38°54' W 076°25'0 0.2
2017-Dec-30 14:22N 38°54' W 076°25'0 0.1
2017-Dec-30 13:52N 38°54' W 076°25'0 0.1
2017-Dec-30 13:13N 38°54' W 076°25'0 0.0
2017-Dec-30 12:40N 38°54' W 076°25'0 0.1
2017-Dec-30 12:28N 38°54' W 076°25'0 0.1
2017-Dec-30 11:46N 38°54' W 076°25'0 0.1
2017-Dec-30 11:13N 38°54' W 076°25'0 0.2
2017-Dec-30 10:55N 38°54' W 076°25'0 0.1
2017-Dec-30 10:28N 38°54' W 076°25'0 0.1
2017-Dec-30 09:58N 38°54' W 076°24'0 0.1
2017-Dec-30 09:28N 38°54' W 076°24'0 0.0
2017-Dec-30 08:58N 38°54' W 076°24'0 0.0
2017-Dec-30 08:28N 38°54' W 076°24'0 0.0
2017-Dec-30 07:58N 38°54' W 076°24'0 0.0
2017-Dec-30 07:28N 38°54' W 076°24'0 0.2
2017-Dec-30 06:58N 38°54' W 076°25'0 0.3
2017-Dec-30 06:25N 38°54' W 076°25'0 0.1
2017-Dec-30 05:52N 38°54' W 076°24'0 0.0
2017-Dec-30 05:28N 38°54' W 076°24'0 0.0
2017-Dec-30 04:58N 38°54' W 076°24'0 0.0
2017-Dec-30 04:28N 38°54' W 076°24'0 0.0
2017-Dec-30 03:58N 38°54' W 076°24'0 0.0
2017-Dec-30 03:28N 38°54' W 076°24'0 0.0
2017-Dec-30 02:58N 38°54' W 076°24'0 0.0
2017-Dec-30 02:28N 38°54' W 076°24'0 0.0
2017-Dec-30 01:58N 38°54' W 076°24'0 0.0
2017-Dec-30 01:28N 38°54' W 076°24'0 0.0
2017-Dec-30 00:55N 38°54' W 076°24'0 0.0
2017-Dec-30 00:28N 38°54' W 076°24'0 0.0
2017-Dec-29 23:58N 38°54' W 076°24'0 0.0
2017-Dec-29 23:28N 38°54' W 076°24'0 0.0
2017-Dec-29 22:58N 38°54' W 076°24'0 0.1
2017-Dec-29 22:28N 38°54' W 076°24'0 0.1
2017-Dec-29 21:58N 38°54' W 076°24'  

Dump ship's entire track history